Time;durP1;ratioP1;P1;durP2;ratioP2;P2;SDS_P1;SDS_P2;PMS_P1;PMS_P2;Temp;Humidity;BMP_temperature;BMP_pressure;BME280_temperature;BME280_humidity;BME280_pressure;Samples;Min_cycle;Max_cycle;Signal;HPM_P1;HPM_P2
2023/06/06 00:01:41;;;;;;;;;;;15.60;99.90;;;;;;4926607;28;19925;-80
2023/06/06 00:04:07;;;;;;;;;;;15.60;99.90;;;;;;4925999;28;19910;-78
2023/06/06 00:06:35;;;;;;;;;;;15.60;99.90;;;;;;4924216;28;19918;-78
2023/06/06 00:09:04;;;;;;;;;;;15.70;99.90;;;;;;4930984;28;19917;-78
2023/06/06 00:11:35;;;;;;;;;;;15.70;99.90;;;;;;4945149;28;19941;-78
2023/06/06 00:14:02;;;;;;;;;;;15.70;99.90;;;;;;4941997;28;20376;-78
2023/06/06 00:16:34;;;;;;;;;;;15.60;99.90;;;;;;4925511;29;20004;-78
2023/06/06 00:19:03;;;;;;;;;;;15.70;99.90;;;;;;4946498;28;19910;-78
2023/06/06 00:21:32;;;;;;;;;;;15.80;99.90;;;;;;4926557;28;19914;-78
2023/06/06 00:24:02;;;;;;;;;;;15.80;99.90;;;;;;4941745;28;19910;-80
2023/06/06 00:26:29;;;;;;;;;;;15.80;99.90;;;;;;4944040;28;20023;-79
2023/06/06 00:29:01;;;;;;;;;;;15.80;99.90;;;;;;4947672;28;19910;-79
2023/06/06 00:31:26;;;;;;;;;;;15.90;99.90;;;;;;4928060;28;19929;-78
2023/06/06 00:33:55;;;;;;;;;;;15.90;99.90;;;;;;4947992;28;20000;-78
2023/06/06 00:36:22;;;;;;;;;;;15.90;99.90;;;;;;4926679;28;19961;-79
2023/06/06 00:38:50;;;;;;;;;;;15.90;99.90;;;;;;4925322;28;20012;-79
2023/06/06 00:41:16;;;;;;;;;;;15.90;99.90;;;;;;4950112;28;20037;-79
2023/06/06 00:43:43;;;;;;;;;;;15.90;99.90;;;;;;4945104;28;20001;-78
2023/06/06 00:46:22;;;;;;;;;;;15.90;99.90;;;;;;4945422;28;19946;-78
2023/06/06 00:48:47;;;;;;;;;;;15.90;99.90;;;;;;4946136;28;19915;-79
2023/06/06 00:51:18;;;;;;;;;;;15.70;99.90;;;;;;4934115;28;19911;-78
2023/06/06 00:53:57;;;;;;;;;;;15.70;99.90;;;;;;4929562;28;19921;-78
2023/06/06 00:56:32;;;;;;;;;;;15.70;99.90;;;;;;4949516;28;19917;-78
2023/06/06 00:58:57;;;;;;;;;;;15.80;99.90;;;;;;4948236;28;20084;-78
2023/06/06 01:01:25;;;;;;;;;;;15.80;99.90;;;;;;4950044;28;20018;-78
2023/06/06 01:03:56;;;;;;;;;;;15.80;99.90;;;;;;4930469;28;19918;-79
2023/06/06 01:06:38;;;;;;;;;;;15.70;99.90;;;;;;4945811;28;19914;-78
2023/06/06 01:09:15;;;;;;;;;;;15.60;99.90;;;;;;4942532;28;19925;-78
2023/06/06 01:11:59;;;;;;;;;;;15.60;99.90;;;;;;4947940;28;20009;-78
2023/06/06 01:14:40;;;;;;;;;;;15.50;99.90;;;;;;4928228;28;19990;-78
2023/06/06 01:17:08;;;;;;;;;;;15.40;99.90;;;;;;4928519;29;19914;-79
2023/06/06 01:19:41;;;;;;;;;;;15.50;99.90;;;;;;4944274;28;20319;-78
2023/06/06 01:22:12;;;;;;;;;;;15.40;99.90;;;;;;4931528;28;19911;-78
2023/06/06 01:24:46;;;;;;;;;;;15.50;99.90;;;;;;4941638;28;19961;-78
2023/06/06 01:27:13;;;;;;;;;;;15.60;99.90;;;;;;4929529;28;19914;-78
2023/06/06 01:29:40;;;;;;;;;;;15.50;99.90;;;;;;4928742;28;19915;-78
2023/06/06 01:32:12;;;;;;;;;;;15.60;99.90;;;;;;4946974;28;20564;-78
2023/06/06 01:34:50;;;;;;;;;;;15.60;99.90;;;;;;4927830;28;20025;-78
2023/06/06 01:37:26;;;;;;;;;;;15.70;99.90;;;;;;4925765;28;19922;-78
2023/06/06 01:39:55;;;;;;;;;;;15.80;99.90;;;;;;4946383;28;20384;-79
2023/06/06 01:42:21;;;;;;;;;;;15.80;99.90;;;;;;4926657;28;19992;-78
2023/06/06 01:44:50;;;;;;;;;;;15.80;99.90;;;;;;4933599;28;20053;-78
2023/06/06 01:47:22;;;;;;;;;;;15.80;99.90;;;;;;4945035;28;20005;-78
2023/06/06 01:49:47;;;;;;;;;;;15.90;99.90;;;;;;4926590;28;19918;-78
2023/06/06 01:52:18;;;;;;;;;;;15.80;99.90;;;;;;4944822;28;20106;-78
2023/06/06 01:54:52;;;;;;;;;;;15.80;99.90;;;;;;4942771;28;19958;-78
2023/06/06 01:57:20;;;;;;;;;;;15.80;99.90;;;;;;4938961;28;19949;-78
2023/06/06 01:59:50;;;;;;;;;;;15.80;99.90;;;;;;4927024;28;20376;-78
2023/06/06 02:02:17;;;;;;;;;;;15.80;99.90;;;;;;4863112;28;1795441;-78
2023/06/06 02:04:42;;;;;;;;;;;15.80;99.90;;;;;;4930752;28;19919;-78
2023/06/06 02:07:20;;;;;;;;;;;15.80;99.90;;;;;;4947664;28;19921;-78
2023/06/06 02:09:49;;;;;;;;;;;15.80;99.90;;;;;;4942967;28;19925;-78
2023/06/06 02:12:14;;;;;;;;;;;15.80;99.90;;;;;;4928295;28;20257;-78
2023/06/06 02:14:41;;;;;;;;;;;15.80;99.90;;;;;;4927984;28;19962;-78
2023/06/06 02:17:11;;;;;;;;;;;15.80;99.90;;;;;;4927204;28;19918;-78
2023/06/06 02:19:37;;;;;;;;;;;15.90;99.90;;;;;;4943384;28;20280;-78
2023/06/06 02:22:05;;;;;;;;;;;15.80;99.90;;;;;;4928331;28;19917;-78
2023/06/06 02:24:32;;;;;;;;;;;15.90;99.90;;;;;;4927759;29;20017;-78
2023/06/06 02:26:58;;;;;;;;;;;15.90;99.90;;;;;;4943863;28;20017;-78
2023/06/06 02:29:26;;;;;;;;;;;15.80;99.90;;;;;;4944441;28;20416;-78
2023/06/06 02:31:57;;;;;;;;;;;15.80;99.90;;;;;;4942008;28;19910;-78
2023/06/06 02:34:25;;;;;;;;;;;15.80;99.90;;;;;;4924485;28;19914;-78
2023/06/06 02:36:53;;;;;;;;;;;15.80;99.90;;;;;;4926692;28;20263;-78
2023/06/06 02:39:27;;;;;;;;;;;15.80;99.90;;;;;;4948567;28;20044;-78
2023/06/06 02:41:53;;;;;;;;;;;15.80;99.90;;;;;;4947967;28;19915;-79
2023/06/06 02:44:21;;;;;;;;;;;15.80;99.90;;;;;;4940598;28;20057;-78
2023/06/06 02:46:48;;;;;;;;;;;15.80;99.90;;;;;;4948964;28;19911;-78
2023/06/06 02:49:18;;;;;;;;;;;15.80;99.90;;;;;;4928872;28;19915;-78
2023/06/06 02:51:46;;;;;;;;;;;15.80;99.90;;;;;;4929289;28;19997;-78
2023/06/06 02:54:20;;;;;;;;;;;15.70;99.90;;;;;;4927844;28;19914;-78
2023/06/06 02:56:49;;;;;;;;;;;15.80;99.90;;;;;;4930061;28;19934;-78
2023/06/06 02:59:18;;;;;;;;;;;15.80;99.90;;;;;;4928640;28;19922;-78
2023/06/06 03:01:44;;;;;;;;;;;15.80;99.90;;;;;;4931786;28;20347;-78
2023/06/06 03:04:23;;;;;;;;;;;15.70;99.90;;;;;;4933426;28;19911;-78
2023/06/06 03:06:51;;;;;;;;;;;15.70;99.90;;;;;;4938006;28;19918;-78
2023/06/06 03:09:19;;;;;;;;;;;15.80;99.90;;;;;;4931509;28;19930;-78
2023/06/06 03:11:45;;;;;;;;;;;15.80;99.90;;;;;;4934398;28;19961;-78
2023/06/06 03:14:14;;;;;;;;;;;15.80;99.90;;;;;;4925922;28;19919;-77
2023/06/06 03:16:51;;;;;;;;;;;15.80;99.90;;;;;;4924988;28;19910;-79
2023/06/06 03:19:17;;;;;;;;;;;15.80;99.90;;;;;;4944540;28;20001;-78
2023/06/06 03:21:45;;;;;;;;;;;15.80;99.90;;;;;;4934710;28;19917;-78
2023/06/06 03:24:13;;;;;;;;;;;15.90;99.90;;;;;;4943361;28;20033;-78
2023/06/06 03:26:44;;;;;;;;;;;15.90;99.90;;;;;;4949120;28;19921;-77
2023/06/06 03:29:12;;;;;;;;;;;15.90;99.90;;;;;;4929572;28;19973;-78
2023/06/06 03:31:41;;;;;;;;;;;15.90;99.90;;;;;;4933000;28;19917;-77
2023/06/06 03:34:07;;;;;;;;;;;15.90;99.90;;;;;;4925791;28;19910;-78
2023/06/06 03:36:35;;;;;;;;;;;15.90;99.90;;;;;;4941421;28;19922;-78
2023/06/06 03:39:01;;;;;;;;;;;15.90;99.90;;;;;;4927028;28;19924;-78
2023/06/06 03:41:30;;;;;;;;;;;15.90;99.90;;;;;;4933042;29;19914;-78
2023/06/06 03:49:40;;;;;;;;;;;16.00;99.90;;;;;;4945507;29;19938;-78
2023/06/06 03:55:09;;;;;;;;;;;16.00;99.90;;;;;;4945394;29;19965;-78
2023/06/06 04:00:39;;;;;;;;;;;16.10;99.90;;;;;;4945638;29;19933;-78
2023/06/06 04:06:08;;;;;;;;;;;16.10;99.90;;;;;;4949262;28;20272;-78
2023/06/06 04:11:36;;;;;;;;;;;16.10;99.90;;;;;;4945694;29;20408;-79
2023/06/06 04:17:07;;;;;;;;;;;16.30;99.90;;;;;;4946176;29;19917;-79
2023/06/06 04:22:36;;;;;;;;;;;16.40;99.90;;;;;;4948735;29;20384;-79
2023/06/06 04:28:05;;;;;;;;;;;16.60;99.90;;;;;;4948717;29;20272;-79
2023/06/06 04:33:34;;;;;;;;;;;16.70;99.90;;;;;;4946212;28;20454;-78
2023/06/06 04:36:06;;;;;;;;;;;16.80;99.90;;;;;;4948035;28;19946;-79
2023/06/06 04:38:37;;;;;;;;;;;16.80;99.90;;;;;;4946253;28;19922;-80
2023/06/06 04:41:10;;;;;;;;;;;16.90;99.90;;;;;;4950785;28;21459;-81
2023/06/06 04:43:39;;;;;;;;;;;16.90;99.90;;;;;;4929182;28;19910;-80
2023/06/06 04:46:04;;;;;;;;;;;16.90;99.90;;;;;;4932183;28;19929;-80
2023/06/06 04:48:41;;;;;;;;;;;17.10;99.90;;;;;;4927609;28;19919;-79
2023/06/06 04:51:12;;;;;;;;;;;17.10;99.90;;;;;;4945920;28;19899;-78
2023/06/06 04:53:44;;;;;;;;;;;17.10;99.90;;;;;;4961154;28;19928;-79
2023/06/06 04:56:17;;;;;;;;;;;17.00;99.90;;;;;;4934805;28;19918;-79
2023/06/06 04:58:48;;;;;;;;;;;17.20;99.90;;;;;;4927817;29;19987;-79
2023/06/06 05:01:15;;;;;;;;;;;17.30;99.90;;;;;;4947002;28;19918;-78
2023/06/06 05:03:42;;;;;;;;;;;17.50;99.90;;;;;;4928436;28;19910;-76
2023/06/06 05:06:09;;;;;;;;;;;17.60;99.90;;;;;;4950800;28;20077;-78
2023/06/06 05:08:41;;;;;;;;;;;17.70;99.90;;;;;;4947720;28;20001;-78
2023/06/06 05:11:07;;;;;;;;;;;17.80;99.90;;;;;;4930723;28;19911;-78
2023/06/06 05:13:40;;;;;;;;;;;17.80;99.90;;;;;;4951441;28;19926;-77
2023/06/06 05:16:07;;;;;;;;;;;17.70;99.90;;;;;;4945832;28;19914;-77
2023/06/06 05:18:40;;;;;;;;;;;17.70;99.90;;;;;;4928490;28;19926;-77
2023/06/06 05:21:07;;;;;;;;;;;18.00;99.90;;;;;;4945621;28;19950;-77
2023/06/06 05:23:32;;;;;;;;;;;18.20;99.90;;;;;;4947619;28;21184;-77
2023/06/06 05:25:59;;;;;;;;;;;18.40;99.90;;;;;;4926264;28;19914;-77
2023/06/06 05:28:32;;;;;;;;;;;18.60;99.90;;;;;;4927476;28;19915;-76
2023/06/06 05:30:57;;;;;;;;;;;18.30;99.90;;;;;;4943563;28;19910;-76
2023/06/06 05:33:25;;;;;;;;;;;18.40;99.90;;;;;;4952188;28;19965;-76
2023/06/06 05:35:55;;;;;;;;;;;18.50;99.90;;;;;;4930169;28;20324;-77
2023/06/06 05:38:25;;;;;;;;;;;18.40;99.90;;;;;;4953980;28;20360;-77
2023/06/06 05:40:52;;;;;;;;;;;18.30;99.90;;;;;;4949791;28;20360;-76
2023/06/06 05:43:18;;;;;;;;;;;18.60;99.90;;;;;;4931249;28;20790;-76
2023/06/06 05:45:56;;;;;;;;;;;18.90;99.90;;;;;;4945627;28;19918;-77
2023/06/06 05:48:25;;;;;;;;;;;19.20;99.90;;;;;;4926314;29;19919;-77
2023/06/06 05:50:52;;;;;;;;;;;19.60;99.90;;;;;;4942988;28;19957;-77
2023/06/06 05:53:18;;;;;;;;;;;19.60;99.90;;;;;;4947132;28;19922;-77
2023/06/06 05:55:46;;;;;;;;;;;19.50;99.90;;;;;;4930620;28;19918;-77
2023/06/06 05:58:13;;;;;;;;;;;20.30;99.90;;;;;;4929589;28;19922;-77
2023/06/06 06:00:47;;;;;;;;;;;20.40;99.90;;;;;;4943413;28;19945;-76
2023/06/06 06:03:15;;;;;;;;;;;20.80;99.90;;;;;;4928054;28;19910;-77
2023/06/06 06:05:40;;;;;;;;;;;22.00;99.90;;;;;;4946314;28;19937;-77
2023/06/06 06:08:07;;;;;;;;;;;22.90;99.90;;;;;;4946875;28;20368;-77
2023/06/06 06:10:34;;;;;;;;;;;22.90;99.90;;;;;;4935067;28;19918;-77
2023/06/06 06:13:06;;;;;;;;;;;22.10;99.90;;;;;;4948840;28;19910;-76
2023/06/06 06:15:33;;;;;;;;;;;21.60;99.90;;;;;;4948270;28;19919;-76
2023/06/06 06:18:00;;;;;;;;;;;21.20;99.90;;;;;;4943997;28;20359;-76
2023/06/06 06:20:31;;;;;;;;;;;20.80;99.90;;;;;;4945922;28;19910;-77
2023/06/06 06:22:58;;;;;;;;;;;20.40;99.90;;;;;;4926992;29;19920;-76
2023/06/06 06:25:32;;;;;;;;;;;20.50;99.90;;;;;;4944202;28;20017;-76
2023/06/06 06:27:58;;;;;;;;;;;20.30;99.90;;;;;;4941975;28;20284;-76
2023/06/06 06:30:25;;;;;;;;;;;19.90;99.90;;;;;;4945461;28;19911;-76
2023/06/06 06:32:51;;;;;;;;;;;19.80;99.90;;;;;;4943477;28;19933;-76
2023/06/06 06:35:22;;;;;;;;;;;19.80;99.90;;;;;;4942451;28;20106;-76
2023/06/06 06:37:53;;;;;;;;;;;20.00;99.90;;;;;;4944944;28;19993;-75
2023/06/06 06:40:20;;;;;;;;;;;20.20;99.90;;;;;;4928009;28;20632;-76
2023/06/06 06:42:52;;;;;;;;;;;20.50;99.90;;;;;;4943691;28;20001;-75
2023/06/06 06:45:20;;;;;;;;;;;20.70;99.90;;;;;;4946043;28;19973;-75
2023/06/06 06:47:47;;;;;;;;;;;20.70;99.90;;;;;;4944771;28;20001;-76
2023/06/06 06:50:15;;;;;;;;;;;20.90;99.90;;;;;;4943537;28;19915;-75
2023/06/06 06:52:48;;;;;;;;;;;21.60;99.90;;;;;;4947073;28;19950;-76
2023/06/06 06:55:14;;;;;;;;;;;22.10;99.90;;;;;;4941849;28;19911;-76
2023/06/06 06:57:56;;;;;;;;;;;22.20;99.90;;;;;;4943511;28;19910;-76
2023/06/06 07:00:23;;;;;;;;;;;22.20;99.90;;;;;;4941272;28;19947;-76
2023/06/06 07:02:53;;;;;;;;;;;21.70;99.90;;;;;;4933525;28;19961;-76
2023/06/06 07:05:24;;;;;;;;;;;21.60;99.90;;;;;;4927755;29;20048;-76
2023/06/06 07:07:58;;;;;;;;;;;21.60;99.90;;;;;;4950799;28;20469;-76
2023/06/06 07:10:26;;;;;;;;;;;21.80;99.90;;;;;;4947892;28;19910;-76
2023/06/06 07:12:55;;;;;;;;;;;22.00;99.90;;;;;;4926857;29;19917;-77
2023/06/06 07:15:28;;;;;;;;;;;22.30;99.90;;;;;;4927687;28;19938;-76
2023/06/06 07:17:56;;;;;;;;;;;22.00;99.90;;;;;;4941498;28;19990;-77
2023/06/06 07:20:23;;;;;;;;;;;21.60;99.90;;;;;;4931020;28;19992;-76
2023/06/06 07:22:57;;;;;;;;;;;21.20;99.90;;;;;;4938030;28;20012;-76
2023/06/06 07:25:28;;;;;;;;;;;21.30;99.90;;;;;;4946665;28;19915;-77
2023/06/06 07:28:05;;;;;;;;;;;21.60;99.90;;;;;;4934848;28;20130;-77
2023/06/06 07:30:41;;;;;;;;;;;21.70;99.90;;;;;;4944236;28;20009;-76
2023/06/06 07:33:07;;;;;;;;;;;21.30;99.90;;;;;;4927150;28;19910;-77
2023/06/06 07:35:36;;;;;;;;;;;21.60;99.90;;;;;;4942446;28;20054;-76
2023/06/06 07:38:02;;;;;;;;;;;21.50;99.90;;;;;;4935809;28;19926;-76
2023/06/06 07:40:34;;;;;;;;;;;21.00;99.90;;;;;;4926609;28;20057;-76
2023/06/06 07:43:06;;;;;;;;;;;21.00;99.90;;;;;;4941204;28;19985;-75
2023/06/06 07:45:34;;;;;;;;;;;21.70;99.90;;;;;;4928924;28;19945;-75
2023/06/06 07:48:03;;;;;;;;;;;22.50;99.90;;;;;;4941121;28;20001;-77
2023/06/06 07:50:28;;;;;;;;;;;23.20;99.90;;;;;;4929485;28;19966;-76
2023/06/06 07:52:54;;;;;;;;;;;23.20;99.90;;;;;;4922812;29;20406;-76
2023/06/06 07:55:20;;;;;;;;;;;23.40;99.90;;;;;;4941590;28;19921;-76
2023/06/06 07:57:47;;;;;;;;;;;21.90;99.90;;;;;;4948282;28;19910;-76
2023/06/06 08:00:13;;;;;;;;;;;21.60;99.90;;;;;;4945970;28;19921;-76
2023/06/06 08:02:43;;;;;;;;;;;21.30;99.90;;;;;;4949601;28;19915;-76
2023/06/06 08:05:10;;;;;;;;;;;21.10;99.90;;;;;;4923265;28;19918;-76
2023/06/06 08:07:38;;;;;;;;;;;20.90;99.90;;;;;;4944010;28;20633;-76
2023/06/06 08:10:04;;;;;;;;;;;21.00;99.90;;;;;;4926058;28;19911;-76
2023/06/06 08:12:32;;;;;;;;;;;21.00;99.90;;;;;;4942900;28;20280;-76
2023/06/06 08:15:06;;;;;;;;;;;20.70;99.90;;;;;;4948536;28;19914;-76
2023/06/06 08:17:32;;;;;;;;;;;20.80;99.90;;;;;;4924558;28;20460;-75
2023/06/06 08:19:58;;;;;;;;;;;20.80;99.90;;;;;;4944322;28;19925;-75
2023/06/06 08:32:46;;;;;;;;;;;20.90;99.90;;;;;;5305052;23;19934;-75
2023/06/06 08:35:13;;;;;;;;;;;20.60;99.90;;;;;;4938715;28;19921;-76
2023/06/06 08:37:39;;;;;;;;;;;20.80;99.90;;;;;;4959931;28;19910;-75
2023/06/06 08:40:05;;;;;;;;;;;20.80;99.90;;;;;;4967245;28;19922;-76
2023/06/06 08:42:35;;;;;;;;;;;20.90;99.90;;;;;;4951953;28;19923;-75
2023/06/06 08:45:05;;;;;;;;;;;20.70;99.90;;;;;;4927304;28;20037;-76
2023/06/06 08:47:31;;;;;;;;;;;20.50;99.90;;;;;;4931910;28;19914;-76
2023/06/06 08:50:04;;;;;;;;;;;20.30;99.90;;;;;;4942028;28;19919;-75
2023/06/06 08:52:34;;;;;;;;;;;20.30;99.90;;;;;;4923045;28;20415;-76
2023/06/06 08:55:00;;;;;;;;;;;20.40;99.90;;;;;;4925854;28;19914;-75
2023/06/06 08:57:41;;;;;;;;;;;20.50;99.90;;;;;;4945686;28;19914;-75
2023/06/06 09:00:11;;;;;;;;;;;20.60;99.90;;;;;;4927441;28;20355;-75
2023/06/06 09:02:41;;;;;;;;;;;20.90;99.90;;;;;;4936204;28;20415;-76
2023/06/06 09:05:08;;;;;;;;;;;21.20;99.90;;;;;;4926420;28;19919;-76
2023/06/06 09:07:35;;;;;;;;;;;21.80;99.90;;;;;;4947137;28;19917;-76
2023/06/06 09:10:00;;;;;;;;;;;22.20;99.90;;;;;;4946525;28;20291;-76
2023/06/06 09:12:26;;;;;;;;;;;22.70;99.90;;;;;;4944323;28;19915;-76
2023/06/06 09:14:56;;;;;;;;;;;22.80;99.90;;;;;;4940663;28;20001;-75
2023/06/06 09:17:24;;;;;;;;;;;22.70;99.90;;;;;;4945224;28;19961;-75
2023/06/06 09:19:50;;;;;;;;;;;22.80;99.90;;;;;;4931336;28;20275;-75
2023/06/06 09:22:21;;;;;;;;;;;22.90;99.90;;;;;;4944015;28;19917;-75
2023/06/06 09:24:50;;;;;;;;;;;23.20;99.90;;;;;;4943924;28;20408;-75
2023/06/06 09:27:26;;;;;;;;;;;23.40;99.90;;;;;;4946344;28;19965;-75
2023/06/06 09:29:51;;;;;;;;;;;23.70;99.90;;;;;;4947815;28;20081;-75
2023/06/06 09:32:25;;;;;;;;;;;23.90;99.90;;;;;;4927083;28;20001;-75
2023/06/06 09:34:52;;;;;;;;;;;24.20;99.90;;;;;;4944669;28;20275;-76
2023/06/06 09:37:21;;;;;;;;;;;24.10;99.90;;;;;;4945542;28;19918;-75
2023/06/06 09:40:08;;;;;;;;;;;24.20;99.90;;;;;;4946158;28;19975;-73
2023/06/06 09:42:47;;;;;;;;;;;24.40;99.90;;;;;;4939914;28;20009;-75
2023/06/06 09:45:14;;;;;;;;;;;24.70;99.90;;;;;;4929171;28;19993;-75
2023/06/06 09:47:41;;;;;;;;;;;24.70;99.90;;;;;;4930303;28;20001;-74
2023/06/06 09:50:08;;;;;;;;;;;24.90;99.90;;;;;;4943836;28;19910;-74
2023/06/06 09:52:34;;;;;;;;;;;25.10;99.90;;;;;;4942973;28;20021;-74
2023/06/06 09:55:06;;;;;;;;;;;24.10;99.90;;;;;;4933556;28;20554;-74
2023/06/06 09:57:39;;;;;;;;;;;23.00;99.90;;;;;;4942455;28;20551;-74
2023/06/06 10:00:15;;;;;;;;;;;23.50;99.90;;;;;;4929490;28;19910;-75
2023/06/06 10:02:47;;;;;;;;;;;24.20;99.90;;;;;;4945395;28;19914;-74
2023/06/06 10:05:25;;;;;;;;;;;24.80;99.90;;;;;;4938426;28;19925;-75
2023/06/06 10:07:53;;;;;;;;;;;24.90;99.90;;;;;;4926380;28;19910;-74
2023/06/06 10:10:20;;;;;;;;;;;25.00;99.90;;;;;;4946732;28;19924;-75
2023/06/06 10:12:45;;;;;;;;;;;25.00;99.90;;;;;;4940549;28;20362;-75
2023/06/06 10:15:11;;;;;;;;;;;24.80;99.90;;;;;;4941735;28;19911;-76
2023/06/06 10:17:42;;;;;;;;;;;24.50;99.90;;;;;;4932934;28;19998;-76
2023/06/06 10:20:10;;;;;;;;;;;24.00;99.90;;;;;;4945989;28;19922;-76
2023/06/06 10:22:41;;;;;;;;;;;24.40;99.90;;;;;;4935651;28;19915;-76
2023/06/06 10:25:13;;;;;;;;;;;25.40;99.90;;;;;;4944149;28;19915;-75
2023/06/06 10:27:47;;;;;;;;;;;26.60;99.90;;;;;;4945682;28;19914;-74
2023/06/06 10:30:23;;;;;;;;;;;26.80;99.90;;;;;;4940750;28;20061;-75
2023/06/06 10:33:15;;;;;;;;;;;27.00;99.90;;;;;;4948036;28;19922;-75
2023/06/06 10:35:42;;;;;;;;;;;27.10;99.90;;;;;;4917671;28;20418;-74
2023/06/06 10:38:09;;;;;;;;;;;27.00;99.80;;;;;;4943491;28;20674;-74
2023/06/06 10:40:53;;;;;;;;;;;26.30;99.90;;;;;;4941580;28;19997;-74
2023/06/06 10:43:19;;;;;;;;;;;25.00;99.90;;;;;;4944827;28;20366;-74
2023/06/06 10:45:45;;;;;;;;;;;24.00;99.90;;;;;;4944121;28;19932;-75
2023/06/06 10:48:13;;;;;;;;;;;24.20;99.90;;;;;;4945268;28;19910;-75
2023/06/06 10:50:52;;;;;;;;;;;24.50;99.90;;;;;;4946758;28;19911;-74
2023/06/06 10:53:18;;;;;;;;;;;24.90;99.90;;;;;;4939077;28;19926;-74
2023/06/06 10:55:46;;;;;;;;;;;24.90;99.90;;;;;;4926915;28;19918;-74
2023/06/06 10:58:17;;;;;;;;;;;24.60;99.90;;;;;;4925554;28;19921;-74
2023/06/06 11:00:46;;;;;;;;;;;24.10;99.90;;;;;;4942433;28;20001;-74
2023/06/06 11:03:30;;;;;;;;;;;24.40;99.90;;;;;;4924116;28;19957;-74
2023/06/06 11:06:08;;;;;;;;;;;25.00;99.90;;;;;;4942433;28;19953;-75
2023/06/06 11:08:38;;;;;;;;;;;25.40;99.90;;;;;;4941039;28;19915;-74
2023/06/06 11:11:20;;;;;;;;;;;24.40;99.90;;;;;;4945273;28;19911;-74
2023/06/06 11:14:06;;;;;;;;;;;24.30;99.90;;;;;;4939494;28;20034;-74
2023/06/06 11:16:39;;;;;;;;;;;24.10;99.90;;;;;;4938731;28;19919;-75
2023/06/06 11:19:14;;;;;;;;;;;23.70;99.90;;;;;;4923899;28;20407;-75
2023/06/06 11:21:40;;;;;;;;;;;24.10;99.90;;;;;;4942830;28;20017;-75
2023/06/06 11:24:08;;;;;;;;;;;24.70;99.90;;;;;;4940602;28;20308;-74
2023/06/06 11:26:33;;;;;;;;;;;25.00;99.90;;;;;;4946772;28;19933;-74
2023/06/06 11:29:08;;;;;;;;;;;25.40;99.90;;;;;;4944937;28;19994;-75
2023/06/06 11:31:35;;;;;;;;;;;25.70;99.90;;;;;;4940132;28;20483;-75
2023/06/06 11:34:10;;;;;;;;;;;25.60;99.90;;;;;;4941814;28;19958;-75
2023/06/06 11:36:37;;;;;;;;;;;25.00;99.90;;;;;;4944220;28;19910;-75
2023/06/06 11:39:10;;;;;;;;;;;24.80;99.90;;;;;;4941860;28;19924;-75
2023/06/06 11:41:39;;;;;;;;;;;25.00;99.90;;;;;;4943636;28;19914;-75
2023/06/06 11:44:05;;;;;;;;;;;24.70;99.90;;;;;;4926305;28;19911;-74
2023/06/06 11:46:42;;;;;;;;;;;24.60;99.90;;;;;;4948491;28;21373;-75
2023/06/06 11:49:10;;;;;;;;;;;24.60;99.90;;;;;;4924303;28;19938;-74
2023/06/06 11:51:39;;;;;;;;;;;25.00;99.90;;;;;;4929322;28;19910;-74
2023/06/06 11:54:13;;;;;;;;;;;25.00;99.90;;;;;;4943078;28;19954;-74
2023/06/06 11:56:39;;;;;;;;;;;25.30;99.90;;;;;;4940547;28;20087;-75
2023/06/06 11:59:08;;;;;;;;;;;25.60;99.90;;;;;;4946862;28;19917;-74
2023/06/06 12:01:36;;;;;;;;;;;25.90;99.90;;;;;;4926966;28;19917;-75
2023/06/06 12:04:04;;;;;;;;;;;25.80;99.90;;;;;;4945251;28;19926;-75
2023/06/06 12:06:30;;;;;;;;;;;25.90;99.90;;;;;;4943796;28;19914;-74
2023/06/06 12:08:56;;;;;;;;;;;25.20;99.90;;;;;;4943204;28;20013;-74
2023/06/06 12:11:31;;;;;;;;;;;25.10;99.90;;;;;;4945865;28;20443;-75
2023/06/06 12:13:56;;;;;;;;;;;25.30;99.90;;;;;;4942045;28;19993;-75
2023/06/06 12:16:23;;;;;;;;;;;25.30;99.90;;;;;;4945276;28;20336;-74
2023/06/06 12:18:51;;;;;;;;;;;25.10;99.90;;;;;;4926664;28;19918;-74
2023/06/06 12:21:17;;;;;;;;;;;25.10;99.90;;;;;;4938935;28;19946;-74
2023/06/06 12:23:43;;;;;;;;;;;25.20;99.90;;;;;;4939790;28;20344;-75
2023/06/06 12:26:13;;;;;;;;;;;25.00;99.90;;;;;;4940304;28;19926;-74
2023/06/06 12:28:53;;;;;;;;;;;24.20;99.90;;;;;;4938098;28;19915;-74
2023/06/06 12:31:20;;;;;;;;;;;23.70;99.90;;;;;;4923324;28;20363;-74
2023/06/06 12:33:45;;;;;;;;;;;23.50;99.90;;;;;;4940247;28;20785;-74
2023/06/06 12:36:17;;;;;;;;;;;23.50;99.90;;;;;;4947744;28;19910;-74
2023/06/06 12:38:44;;;;;;;;;;;23.50;99.90;;;;;;4940271;28;20376;-74
2023/06/06 12:41:16;;;;;;;;;;;23.70;99.90;;;;;;4946573;28;19980;-74
2023/06/06 12:43:41;;;;;;;;;;;23.80;99.90;;;;;;4943699;28;19917;-74
2023/06/06 12:46:07;;;;;;;;;;;23.80;99.90;;;;;;4939725;28;19922;-74
2023/06/06 12:48:32;;;;;;;;;;;23.80;99.90;;;;;;4939925;28;20564;-69
2023/06/06 12:50:58;;;;;;;;;;;23.40;99.90;;;;;;4944469;28;19918;-68
2023/06/06 12:53:25;;;;;;;;;;;23.20;99.90;;;;;;4934033;28;19917;-69
2023/06/06 12:55:50;;;;;;;;;;;23.00;99.90;;;;;;4924113;29;20199;-68
2023/06/06 12:58:17;;;;;;;;;;;22.90;99.90;;;;;;4944888;28;19973;-75
2023/06/06 13:00:45;;;;;;;;;;;22.70;99.90;;;;;;4946392;28;19911;-75
2023/06/06 13:03:11;;;;;;;;;;;22.70;99.90;;;;;;4929851;28;20056;-76
2023/06/06 13:05:45;;;;;;;;;;;22.70;99.90;;;;;;4944965;28;19914;-75
2023/06/06 13:08:12;;;;;;;;;;;22.90;99.90;;;;;;4929882;28;20336;-75
2023/06/06 13:10:41;;;;;;;;;;;23.30;99.90;;;;;;4943809;28;19997;-75
2023/06/06 13:13:10;;;;;;;;;;;23.70;99.90;;;;;;4944839;28;19911;-75
2023/06/06 13:15:36;;;;;;;;;;;23.80;99.90;;;;;;4930195;28;19914;-76
2023/06/06 13:18:02;;;;;;;;;;;23.80;99.90;;;;;;4949694;28;19923;-76
2023/06/06 13:20:32;;;;;;;;;;;23.70;99.90;;;;;;4929049;29;20280;-76
2023/06/06 13:22:58;;;;;;;;;;;23.70;99.90;;;;;;4929129;28;20395;-76
2023/06/06 13:25:27;;;;;;;;;;;24.30;99.90;;;;;;4946180;28;19922;-75
2023/06/06 13:27:58;;;;;;;;;;;24.30;99.90;;;;;;4934944;28;19944;-75
2023/06/06 13:30:27;;;;;;;;;;;23.90;99.90;;;;;;4944082;28;19938;-75
2023/06/06 13:32:55;;;;;;;;;;;24.50;99.90;;;;;;4928381;28;19969;-76
2023/06/06 13:35:23;;;;;;;;;;;24.90;99.90;;;;;;4942974;28;19965;-75
2023/06/06 13:37:50;;;;;;;;;;;24.40;99.90;;;;;;4931831;28;20020;-75
2023/06/06 13:40:15;;;;;;;;;;;24.30;99.90;;;;;;4944264;28;19950;-75
2023/06/06 13:42:48;;;;;;;;;;;24.00;99.90;;;;;;4931957;28;19950;-75
2023/06/06 13:45:17;;;;;;;;;;;23.60;99.90;;;;;;4925244;28;19988;-75
2023/06/06 13:47:46;;;;;;;;;;;23.80;99.90;;;;;;4926455;28;19960;-75
2023/06/06 13:50:12;;;;;;;;;;;23.80;99.90;;;;;;4944176;28;20434;-75
2023/06/06 13:52:39;;;;;;;;;;;23.70;99.90;;;;;;4947370;28;19915;-75
2023/06/06 13:55:05;;;;;;;;;;;23.30;99.90;;;;;;4924862;28;19910;-75
2023/06/06 13:57:31;;;;;;;;;;;23.20;99.90;;;;;;4946954;28;19914;-75
2023/06/06 14:00:16;;;;;;;;;;;23.00;99.90;;;;;;4935395;28;19914;-78
2023/06/06 14:02:42;;;;;;;;;;;23.00;99.90;;;;;;4929110;28;20510;-78
2023/06/06 14:05:07;;;;;;;;;;;23.30;99.90;;;;;;4928040;29;19989;-78
2023/06/06 14:07:36;;;;;;;;;;;23.50;99.90;;;;;;4948139;28;19924;-76
2023/06/06 14:10:02;;;;;;;;;;;23.50;99.90;;;;;;4928844;28;19934;-75
2023/06/06 14:12:30;;;;;;;;;;;23.20;99.90;;;;;;4949797;28;19918;-74
2023/06/06 14:14:55;;;;;;;;;;;23.60;99.90;;;;;;4943903;28;19917;-75
2023/06/06 14:17:22;;;;;;;;;;;23.90;99.90;;;;;;4925399;28;19914;-75
2023/06/06 14:19:51;;;;;;;;;;;24.10;99.90;;;;;;4944264;28;19914;-75
2023/06/06 14:22:23;;;;;;;;;;;23.90;99.90;;;;;;4926378;28;19929;-75
2023/06/06 14:24:56;;;;;;;;;;;23.50;99.90;;;;;;4941346;28;19914;-74
2023/06/06 14:27:38;;;;;;;;;;;23.00;99.90;;;;;;4946333;28;19910;-75
2023/06/06 14:30:05;;;;;;;;;;;22.60;99.90;;;;;;4929949;28;20654;-75
2023/06/06 14:32:31;;;;;;;;;;;22.60;99.90;;;;;;4948283;28;19922;-74
2023/06/06 14:34:59;;;;;;;;;;;22.60;99.90;;;;;;4926904;29;19914;-75
2023/06/06 14:37:27;;;;;;;;;;;22.50;99.90;;;;;;4943119;28;20063;-74
2023/06/06 14:39:55;;;;;;;;;;;22.40;99.90;;;;;;4934304;28;19910;-75
2023/06/06 14:42:22;;;;;;;;;;;22.50;99.90;;;;;;4944793;28;20357;-76
2023/06/06 14:44:49;;;;;;;;;;;22.60;99.90;;;;;;4948497;28;20006;-75
2023/06/06 14:47:15;;;;;;;;;;;22.40;99.90;;;;;;4947439;28;19958;-75
2023/06/06 14:49:42;;;;;;;;;;;22.30;99.90;;;;;;4944519;28;20343;-75
2023/06/06 14:52:14;;;;;;;;;;;22.30;99.90;;;;;;4945350;28;19926;-75
2023/06/06 14:54:43;;;;;;;;;;;22.40;99.90;;;;;;4943004;28;20001;-74
2023/06/06 14:57:11;;;;;;;;;;;22.60;99.90;;;;;;4929374;28;19985;-75
2023/06/06 14:59:37;;;;;;;;;;;22.60;99.90;;;;;;4932337;28;19918;-65
2023/06/06 15:02:08;;;;;;;;;;;22.60;99.90;;;;;;4943725;28;19946;-81
2023/06/06 15:04:35;;;;;;;;;;;22.70;99.90;;;;;;4953591;28;20001;-79
2023/06/06 15:07:03;;;;;;;;;;;22.70;99.90;;;;;;4950577;28;19910;-79
2023/06/06 15:09:51;;;;;;;;;;;22.70;99.90;;;;;;4946124;28;19911;-82